sensor_id;sensor_type;location;lat;lon;timestamp;P1;durP1;ratioP1;P2;durP2;ratioP2
51459;SDS011;37534;39.772;2.718;2024-01-27T00:01:26;32.03;;;21.58;;
51459;SDS011;37534;39.772;2.718;2024-01-27T00:03:52;27.88;;;20.45;;
51459;SDS011;37534;39.772;2.718;2024-01-27T00:06:19;41.33;;;22.52;;
51459;SDS011;37534;39.772;2.718;2024-01-27T00:08:44;22.33;;;18.40;;
51459;SDS011;37534;39.772;2.718;2024-01-27T00:11:11;25.80;;;21.15;;
51459;SDS011;37534;39.772;2.718;2024-01-27T00:13:36;27.35;;;18.92;;
51459;SDS011;37534;39.772;2.718;2024-01-27T00:16:02;23.38;;;19.10;;
51459;SDS011;37534;39.772;2.718;2024-01-27T00:18:28;19.38;;;17.38;;
51459;SDS011;37534;39.772;2.718;2024-01-27T00:20:53;28.85;;;19.63;;
51459;SDS011;37534;39.772;2.718;2024-01-27T00:23:19;24.83;;;19.85;;
51459;SDS011;37534;39.772;2.718;2024-01-27T00:25:44;26.90;;;20.95;;
51459;SDS011;37534;39.772;2.718;2024-01-27T00:28:10;31.48;;;21.33;;
51459;SDS011;37534;39.772;2.718;2024-01-27T00:30:35;31.90;;;22.52;;
51459;SDS011;37534;39.772;2.718;2024-01-27T00:33:01;21.63;;;17.95;;
51459;SDS011;37534;39.772;2.718;2024-01-27T00:35:27;25.85;;;19.85;;
51459;SDS011;37534;39.772;2.718;2024-01-27T00:37:52;32.17;;;22.30;;
51459;SDS011;37534;39.772;2.718;2024-01-27T00:40:18;29.67;;;23.70;;
51459;SDS011;37534;39.772;2.718;2024-01-27T00:42:44;32.90;;;22.42;;
51459;SDS011;37534;39.772;2.718;2024-01-27T00:45:09;21.05;;;15.73;;
51459;SDS011;37534;39.772;2.718;2024-01-27T00:47:35;20.55;;;16.83;;
51459;SDS011;37534;39.772;2.718;2024-01-27T00:50:00;19.30;;;15.07;;
51459;SDS011;37534;39.772;2.718;2024-01-27T00:52:26;25.85;;;18.33;;
51459;SDS011;37534;39.772;2.718;2024-01-27T00:54:51;31.33;;;22.65;;
51459;SDS011;37534;39.772;2.718;2024-01-27T00:57:17;28.80;;;23.23;;
51459;SDS011;37534;39.772;2.718;2024-01-27T00:59:43;28.63;;;25.55;;
51459;SDS011;37534;39.772;2.718;2024-01-27T01:02:08;26.45;;;21.58;;
51459;SDS011;37534;39.772;2.718;2024-01-27T01:04:34;28.55;;;20.75;;
51459;SDS011;37534;39.772;2.718;2024-01-27T01:06:59;21.80;;;18.35;;
51459;SDS011;37534;39.772;2.718;2024-01-27T01:09:25;29.55;;;24.33;;
51459;SDS011;37534;39.772;2.718;2024-01-27T01:11:50;29.98;;;18.70;;
51459;SDS011;37534;39.772;2.718;2024-01-27T01:14:16;21.48;;;16.88;;
51459;SDS011;37534;39.772;2.718;2024-01-27T01:16:42;22.83;;;17.67;;
51459;SDS011;37534;39.772;2.718;2024-01-27T01:19:07;23.65;;;18.25;;
51459;SDS011;37534;39.772;2.718;2024-01-27T01:21:33;24.10;;;17.35;;
51459;SDS011;37534;39.772;2.718;2024-01-27T01:23:59;21.10;;;18.80;;
51459;SDS011;37534;39.772;2.718;2024-01-27T01:26:24;16.55;;;12.65;;
51459;SDS011;37534;39.772;2.718;2024-01-27T01:28:50;10.30;;;8.88;;
51459;SDS011;37534;39.772;2.718;2024-01-27T01:31:17;9.57;;;8.68;;
51459;SDS011;37534;39.772;2.718;2024-01-27T01:33:42;14.27;;;9.52;;
51459;SDS011;37534;39.772;2.718;2024-01-27T01:36:09;19.30;;;10.38;;
51459;SDS011;37534;39.772;2.718;2024-01-27T01:38:34;15.63;;;10.52;;
51459;SDS011;37534;39.772;2.718;2024-01-27T01:41:00;14.25;;;11.00;;
51459;SDS011;37534;39.772;2.718;2024-01-27T01:43:26;17.92;;;12.43;;
51459;SDS011;37534;39.772;2.718;2024-01-27T01:45:52;16.10;;;11.15;;
51459;SDS011;37534;39.772;2.718;2024-01-27T01:48:20;14.07;;;9.95;;
51459;SDS011;37534;39.772;2.718;2024-01-27T01:50:46;12.43;;;10.82;;
51459;SDS011;37534;39.772;2.718;2024-01-27T01:53:12;12.23;;;10.60;;
51459;SDS011;37534;39.772;2.718;2024-01-27T01:55:38;16.75;;;13.30;;
51459;SDS011;37534;39.772;2.718;2024-01-27T01:58:05;16.10;;;13.13;;
51459;SDS011;37534;39.772;2.718;2024-01-27T02:00:31;17.42;;;13.10;;
51459;SDS011;37534;39.772;2.718;2024-01-27T02:02:57;24.40;;;16.40;;
51459;SDS011;37534;39.772;2.718;2024-01-27T02:05:23;19.38;;;16.50;;
51459;SDS011;37534;39.772;2.718;2024-01-27T02:07:48;28.40;;;15.90;;
51459;SDS011;37534;39.772;2.718;2024-01-27T02:10:14;20.48;;;17.00;;
51459;SDS011;37534;39.772;2.718;2024-01-27T02:12:41;20.05;;;16.65;;
51459;SDS011;37534;39.772;2.718;2024-01-27T02:15:11;16.88;;;12.63;;
51459;SDS011;37534;39.772;2.718;2024-01-27T02:17:38;16.08;;;10.02;;
51459;SDS011;37534;39.772;2.718;2024-01-27T02:20:04;12.65;;;10.88;;
51459;SDS011;37534;39.772;2.718;2024-01-27T02:22:32;13.95;;;12.55;;
51459;SDS011;37534;39.772;2.718;2024-01-27T02:24:58;12.07;;;10.88;;
51459;SDS011;37534;39.772;2.718;2024-01-27T02:27:24;20.13;;;11.05;;
51459;SDS011;37534;39.772;2.718;2024-01-27T02:29:49;11.02;;;8.73;;
51459;SDS011;37534;39.772;2.718;2024-01-27T02:32:15;16.55;;;10.25;;
51459;SDS011;37534;39.772;2.718;2024-01-27T02:34:40;12.43;;;9.85;;
51459;SDS011;37534;39.772;2.718;2024-01-27T02:37:06;10.73;;;9.10;;
51459;SDS011;37534;39.772;2.718;2024-01-27T02:39:31;11.10;;;9.25;;
51459;SDS011;37534;39.772;2.718;2024-01-27T02:41:57;11.40;;;9.23;;
51459;SDS011;37534;39.772;2.718;2024-01-27T02:44:22;10.85;;;7.57;;
51459;SDS011;37534;39.772;2.718;2024-01-27T02:46:48;15.13;;;8.18;;
51459;SDS011;37534;39.772;2.718;2024-01-27T02:49:14;15.10;;;8.38;;
51459;SDS011;37534;39.772;2.718;2024-01-27T02:51:39;11.38;;;8.52;;
51459;SDS011;37534;39.772;2.718;2024-01-27T02:54:05;12.68;;;9.18;;
51459;SDS011;37534;39.772;2.718;2024-01-27T02:56:30;12.10;;;8.98;;
51459;SDS011;37534;39.772;2.718;2024-01-27T02:58:56;10.35;;;7.70;;
51459;SDS011;37534;39.772;2.718;2024-01-27T03:01:21;11.65;;;9.23;;
51459;SDS011;37534;39.772;2.718;2024-01-27T03:03:47;9.02;;;7.40;;
51459;SDS011;37534;39.772;2.718;2024-01-27T03:06:12;7.75;;;6.97;;
51459;SDS011;37534;39.772;2.718;2024-01-27T03:08:38;7.75;;;5.72;;
51459;SDS011;37534;39.772;2.718;2024-01-27T03:11:03;8.88;;;5.40;;
51459;SDS011;37534;39.772;2.718;2024-01-27T03:13:29;5.85;;;4.95;;
51459;SDS011;37534;39.772;2.718;2024-01-27T03:15:55;6.97;;;5.75;;
51459;SDS011;37534;39.772;2.718;2024-01-27T03:18:21;10.48;;;9.48;;
51459;SDS011;37534;39.772;2.718;2024-01-27T03:20:46;11.40;;;10.02;;
51459;SDS011;37534;39.772;2.718;2024-01-27T03:23:12;7.35;;;5.90;;
51459;SDS011;37534;39.772;2.718;2024-01-27T03:25:38;6.53;;;5.68;;
51459;SDS011;37534;39.772;2.718;2024-01-27T03:28:04;5.57;;;5.15;;
51459;SDS011;37534;39.772;2.718;2024-01-27T03:30:29;5.70;;;4.88;;
51459;SDS011;37534;39.772;2.718;2024-01-27T03:32:55;6.00;;;5.10;;
51459;SDS011;37534;39.772;2.718;2024-01-27T03:35:20;8.65;;;6.10;;
51459;SDS011;37534;39.772;2.718;2024-01-27T03:37:46;5.10;;;4.60;;
51459;SDS011;37534;39.772;2.718;2024-01-27T03:40:12;11.70;;;4.47;;
51459;SDS011;37534;39.772;2.718;2024-01-27T03:42:37;5.63;;;5.13;;
51459;SDS011;37534;39.772;2.718;2024-01-27T03:45:03;6.88;;;5.22;;
51459;SDS011;37534;39.772;2.718;2024-01-27T03:47:29;5.30;;;4.80;;
51459;SDS011;37534;39.772;2.718;2024-01-27T03:49:54;5.18;;;4.65;;
51459;SDS011;37534;39.772;2.718;2024-01-27T03:52:20;4.15;;;3.85;;
51459;SDS011;37534;39.772;2.718;2024-01-27T03:54:45;5.90;;;4.68;;
51459;SDS011;37534;39.772;2.718;2024-01-27T03:57:11;5.68;;;5.10;;
51459;SDS011;37534;39.772;2.718;2024-01-27T03:59:36;6.95;;;5.13;;
51459;SDS011;37534;39.772;2.718;2024-01-27T04:02:02;5.88;;;5.32;;
51459;SDS011;37534;39.772;2.718;2024-01-27T04:04:27;6.75;;;5.90;;
51459;SDS011;37534;39.772;2.718;2024-01-27T04:06:53;7.65;;;5.15;;
51459;SDS011;37534;39.772;2.718;2024-01-27T04:09:18;6.80;;;4.28;;
51459;SDS011;37534;39.772;2.718;2024-01-27T04:11:44;5.28;;;4.55;;
51459;SDS011;37534;39.772;2.718;2024-01-27T04:14:10;5.80;;;4.43;;
51459;SDS011;37534;39.772;2.718;2024-01-27T04:16:35;8.80;;;4.95;;
51459;SDS011;37534;39.772;2.718;2024-01-27T04:19:01;4.68;;;4.28;;
51459;SDS011;37534;39.772;2.718;2024-01-27T04:21:26;5.82;;;3.55;;
51459;SDS011;37534;39.772;2.718;2024-01-27T04:23:52;5.93;;;4.60;;
51459;SDS011;37534;39.772;2.718;2024-01-27T04:26:17;7.63;;;5.28;;
51459;SDS011;37534;39.772;2.718;2024-01-27T04:28:43;4.68;;;4.15;;
51459;SDS011;37534;39.772;2.718;2024-01-27T04:31:10;4.35;;;3.92;;
51459;SDS011;37534;39.772;2.718;2024-01-27T04:33:35;13.07;;;6.72;;
51459;SDS011;37534;39.772;2.718;2024-01-27T04:36:01;5.65;;;4.97;;
51459;SDS011;37534;39.772;2.718;2024-01-27T04:38:26;11.65;;;4.80;;
51459;SDS011;37534;39.772;2.718;2024-01-27T04:40:52;5.70;;;4.57;;
51459;SDS011;37534;39.772;2.718;2024-01-27T04:43:18;4.70;;;4.00;;
51459;SDS011;37534;39.772;2.718;2024-01-27T04:45:45;3.83;;;3.53;;
51459;SDS011;37534;39.772;2.718;2024-01-27T04:48:12;7.13;;;4.78;;
51459;SDS011;37534;39.772;2.718;2024-01-27T04:50:37;6.70;;;4.30;;
51459;SDS011;37534;39.772;2.718;2024-01-27T04:53:03;5.50;;;4.63;;
51459;SDS011;37534;39.772;2.718;2024-01-27T04:55:29;7.93;;;4.97;;
51459;SDS011;37534;39.772;2.718;2024-01-27T04:57:55;4.53;;;4.13;;
51459;SDS011;37534;39.772;2.718;2024-01-27T05:00:20;10.93;;;6.25;;
51459;SDS011;37534;39.772;2.718;2024-01-27T05:02:46;7.43;;;5.57;;
51459;SDS011;37534;39.772;2.718;2024-01-27T05:05:12;8.70;;;5.45;;
51459;SDS011;37534;39.772;2.718;2024-01-27T05:07:38;7.03;;;6.10;;
51459;SDS011;37534;39.772;2.718;2024-01-27T05:10:04;5.88;;;5.13;;
51459;SDS011;37534;39.772;2.718;2024-01-27T05:12:30;5.43;;;4.43;;
51459;SDS011;37534;39.772;2.718;2024-01-27T05:14:56;5.75;;;4.97;;
51459;SDS011;37534;39.772;2.718;2024-01-27T05:17:22;15.45;;;9.15;;
51459;SDS011;37534;39.772;2.718;2024-01-27T05:19:49;11.25;;;7.93;;
51459;SDS011;37534;39.772;2.718;2024-01-27T05:22:15;7.57;;;5.57;;
51459;SDS011;37534;39.772;2.718;2024-01-27T05:24:40;14.85;;;8.80;;
51459;SDS011;37534;39.772;2.718;2024-01-27T05:27:06;11.55;;;8.88;;
51459;SDS011;37534;39.772;2.718;2024-01-27T05:29:31;7.43;;;6.72;;
51459;SDS011;37534;39.772;2.718;2024-01-27T05:31:57;5.95;;;4.97;;
51459;SDS011;37534;39.772;2.718;2024-01-27T05:34:23;11.82;;;10.60;;
51459;SDS011;37534;39.772;2.718;2024-01-27T05:36:48;8.45;;;6.70;;
51459;SDS011;37534;39.772;2.718;2024-01-27T05:39:14;6.50;;;5.82;;
51459;SDS011;37534;39.772;2.718;2024-01-27T05:41:39;9.52;;;7.47;;
51459;SDS011;37534;39.772;2.718;2024-01-27T05:44:05;13.02;;;8.63;;
51459;SDS011;37534;39.772;2.718;2024-01-27T05:46:31;24.02;;;16.35;;
51459;SDS011;37534;39.772;2.718;2024-01-27T05:48:56;17.02;;;12.85;;
51459;SDS011;37534;39.772;2.718;2024-01-27T05:51:26;13.10;;;11.18;;
51459;SDS011;37534;39.772;2.718;2024-01-27T05:53:52;10.23;;;8.32;;
51459;SDS011;37534;39.772;2.718;2024-01-27T05:56:17;12.07;;;9.93;;
51459;SDS011;37534;39.772;2.718;2024-01-27T05:58:46;15.60;;;9.50;;
51459;SDS011;37534;39.772;2.718;2024-01-27T06:01:12;21.88;;;11.68;;
51459;SDS011;37534;39.772;2.718;2024-01-27T06:03:38;10.55;;;9.57;;
51459;SDS011;37534;39.772;2.718;2024-01-27T06:06:06;14.52;;;12.85;;
51459;SDS011;37534;39.772;2.718;2024-01-27T06:08:31;20.10;;;16.08;;
51459;SDS011;37534;39.772;2.718;2024-01-27T06:10:57;32.88;;;20.38;;
51459;SDS011;37534;39.772;2.718;2024-01-27T06:13:22;19.55;;;17.08;;
51459;SDS011;37534;39.772;2.718;2024-01-27T06:15:48;30.77;;;18.98;;
51459;SDS011;37534;39.772;2.718;2024-01-27T06:18:13;48.85;;;30.13;;
51459;SDS011;37534;39.772;2.718;2024-01-27T06:20:39;32.33;;;24.42;;
51459;SDS011;37534;39.772;2.718;2024-01-27T06:23:05;26.88;;;16.05;;
51459;SDS011;37534;39.772;2.718;2024-01-27T06:25:32;19.83;;;14.40;;
51459;SDS011;37534;39.772;2.718;2024-01-27T06:27:57;8.95;;;7.85;;
51459;SDS011;37534;39.772;2.718;2024-01-27T06:30:23;9.38;;;8.35;;
51459;SDS011;37534;39.772;2.718;2024-01-27T06:32:49;7.57;;;6.35;;
51459;SDS011;37534;39.772;2.718;2024-01-27T06:35:15;8.95;;;8.05;;
51459;SDS011;37534;39.772;2.718;2024-01-27T06:37:40;30.70;;;17.23;;
51459;SDS011;37534;39.772;2.718;2024-01-27T06:40:06;14.52;;;12.30;;
51459;SDS011;37534;39.772;2.718;2024-01-27T06:42:34;22.60;;;20.20;;
51459;SDS011;37534;39.772;2.718;2024-01-27T06:44:59;8.02;;;7.32;;
51459;SDS011;37534;39.772;2.718;2024-01-27T06:47:25;24.25;;;17.00;;
51459;SDS011;37534;39.772;2.718;2024-01-27T06:49:50;19.73;;;16.83;;
51459;SDS011;37534;39.772;2.718;2024-01-27T06:52:16;12.93;;;9.85;;
51459;SDS011;37534;39.772;2.718;2024-01-27T06:54:41;8.60;;;7.47;;
51459;SDS011;37534;39.772;2.718;2024-01-27T06:57:30;10.00;;;8.98;;
51459;SDS011;37534;39.772;2.718;2024-01-27T06:59:54;8.20;;;7.25;;
51459;SDS011;37534;39.772;2.718;2024-01-27T07:02:23;10.65;;;7.32;;
51459;SDS011;37534;39.772;2.718;2024-01-27T07:04:52;6.90;;;6.05;;
51459;SDS011;37534;39.772;2.718;2024-01-27T07:07:22;9.55;;;7.20;;
51459;SDS011;37534;39.772;2.718;2024-01-27T07:09:51;8.15;;;7.38;;
51459;SDS011;37534;39.772;2.718;2024-01-27T07:12:17;8.63;;;6.65;;
51459;SDS011;37534;39.772;2.718;2024-01-27T07:14:45;10.00;;;6.53;;
51459;SDS011;37534;39.772;2.718;2024-01-27T07:17:10;10.32;;;6.95;;
51459;SDS011;37534;39.772;2.718;2024-01-27T07:19:36;8.25;;;7.45;;
51459;SDS011;37534;39.772;2.718;2024-01-27T07:22:01;7.93;;;6.00;;
51459;SDS011;37534;39.772;2.718;2024-01-27T07:24:28;9.05;;;5.88;;
51459;SDS011;37534;39.772;2.718;2024-01-27T07:26:54;17.15;;;8.98;;
51459;SDS011;37534;39.772;2.718;2024-01-27T07:29:20;14.80;;;11.48;;
51459;SDS011;37534;39.772;2.718;2024-01-27T07:31:46;21.15;;;14.60;;
51459;SDS011;37534;39.772;2.718;2024-01-27T07:34:11;17.27;;;9.90;;
51459;SDS011;37534;39.772;2.718;2024-01-27T07:36:37;26.27;;;12.27;;
51459;SDS011;37534;39.772;2.718;2024-01-27T07:39:03;18.45;;;10.48;;
51459;SDS011;37534;39.772;2.718;2024-01-27T07:41:30;13.35;;;9.82;;
51459;SDS011;37534;39.772;2.718;2024-01-27T07:43:56;9.07;;;6.57;;
51459;SDS011;37534;39.772;2.718;2024-01-27T07:46:21;10.20;;;5.03;;
51459;SDS011;37534;39.772;2.718;2024-01-27T07:48:48;18.35;;;11.57;;
51459;SDS011;37534;39.772;2.718;2024-01-27T07:51:14;16.15;;;11.30;;
51459;SDS011;37534;39.772;2.718;2024-01-27T07:53:40;16.65;;;10.48;;
51459;SDS011;37534;39.772;2.718;2024-01-27T07:56:06;11.73;;;10.55;;
51459;SDS011;37534;39.772;2.718;2024-01-27T07:58:32;10.50;;;7.97;;
51459;SDS011;37534;39.772;2.718;2024-01-27T08:00:58;7.82;;;7.03;;
51459;SDS011;37534;39.772;2.718;2024-01-27T08:03:25;6.78;;;5.82;;
51459;SDS011;37534;39.772;2.718;2024-01-27T08:05:50;7.70;;;6.03;;
51459;SDS011;37534;39.772;2.718;2024-01-27T08:08:16;7.88;;;7.10;;
51459;SDS011;37534;39.772;2.718;2024-01-27T08:10:42;6.47;;;5.78;;
51459;SDS011;37534;39.772;2.718;2024-01-27T08:13:07;10.63;;;7.15;;
51459;SDS011;37534;39.772;2.718;2024-01-27T08:15:33;10.80;;;8.75;;
51459;SDS011;37534;39.772;2.718;2024-01-27T08:17:58;9.77;;;8.60;;
51459;SDS011;37534;39.772;2.718;2024-01-27T08:20:24;12.60;;;9.05;;
51459;SDS011;37534;39.772;2.718;2024-01-27T08:22:49;11.23;;;7.78;;
51459;SDS011;37534;39.772;2.718;2024-01-27T08:25:16;15.70;;;12.45;;
51459;SDS011;37534;39.772;2.718;2024-01-27T08:27:43;23.50;;;19.08;;
51459;SDS011;37534;39.772;2.718;2024-01-27T08:30:08;24.20;;;14.43;;
51459;SDS011;37534;39.772;2.718;2024-01-27T08:32:35;26.77;;;16.63;;
51459;SDS011;37534;39.772;2.718;2024-01-27T08:35:00;13.88;;;10.77;;
51459;SDS011;37534;39.772;2.718;2024-01-27T08:37:26;18.15;;;11.10;;
51459;SDS011;37534;39.772;2.718;2024-01-27T08:39:52;26.35;;;19.13;;
51459;SDS011;37534;39.772;2.718;2024-01-27T08:42:18;18.00;;;15.38;;
51459;SDS011;37534;39.772;2.718;2024-01-27T08:44:43;19.38;;;15.23;;
51459;SDS011;37534;39.772;2.718;2024-01-27T08:47:09;22.15;;;16.48;;
51459;SDS011;37534;39.772;2.718;2024-01-27T08:49:34;21.83;;;15.75;;
51459;SDS011;37534;39.772;2.718;2024-01-27T08:52:00;19.95;;;13.65;;
51459;SDS011;37534;39.772;2.718;2024-01-27T08:54:26;22.00;;;13.38;;
51459;SDS011;37534;39.772;2.718;2024-01-27T08:56:51;14.55;;;11.15;;
51459;SDS011;37534;39.772;2.718;2024-01-27T08:59:17;19.45;;;13.18;;
51459;SDS011;37534;39.772;2.718;2024-01-27T09:01:42;42.60;;;17.55;;
51459;SDS011;37534;39.772;2.718;2024-01-27T09:04:08;21.15;;;17.08;;
51459;SDS011;37534;39.772;2.718;2024-01-27T09:06:34;21.25;;;16.45;;
51459;SDS011;37534;39.772;2.718;2024-01-27T09:09:00;26.25;;;12.00;;
51459;SDS011;37534;39.772;2.718;2024-01-27T09:11:26;20.13;;;13.80;;
51459;SDS011;37534;39.772;2.718;2024-01-27T09:13:55;17.52;;;13.18;;
51459;SDS011;37534;39.772;2.718;2024-01-27T09:16:21;15.43;;;11.20;;
51459;SDS011;37534;39.772;2.718;2024-01-27T09:18:46;12.38;;;10.38;;
51459;SDS011;37534;39.772;2.718;2024-01-27T09:21:12;14.73;;;11.02;;
51459;SDS011;37534;39.772;2.718;2024-01-27T09:23:39;16.35;;;11.57;;
51459;SDS011;37534;39.772;2.718;2024-01-27T09:26:05;23.55;;;13.57;;
51459;SDS011;37534;39.772;2.718;2024-01-27T09:28:30;22.27;;;15.98;;
51459;SDS011;37534;39.772;2.718;2024-01-27T09:30:56;17.00;;;13.27;;
51459;SDS011;37534;39.772;2.718;2024-01-27T09:33:21;24.52;;;15.93;;
51459;SDS011;37534;39.772;2.718;2024-01-27T09:35:48;102.15;;;78.93;;
51459;SDS011;37534;39.772;2.718;2024-01-27T09:38:14;49.80;;;40.58;;
51459;SDS011;37534;39.772;2.718;2024-01-27T09:40:40;39.80;;;30.85;;
51459;SDS011;37534;39.772;2.718;2024-01-27T09:43:06;42.40;;;27.88;;
51459;SDS011;37534;39.772;2.718;2024-01-27T09:45:37;43.95;;;33.17;;
51459;SDS011;37534;39.772;2.718;2024-01-27T09:48:02;44.22;;;34.58;;
51459;SDS011;37534;39.772;2.718;2024-01-27T09:50:30;52.28;;;37.13;;
51459;SDS011;37534;39.772;2.718;2024-01-27T09:52:55;49.15;;;37.40;;
51459;SDS011;37534;39.772;2.718;2024-01-27T09:55:21;58.40;;;45.13;;
51459;SDS011;37534;39.772;2.718;2024-01-27T09:57:47;48.88;;;38.20;;
51459;SDS011;37534;39.772;2.718;2024-01-27T10:00:13;42.17;;;34.20;;
51459;SDS011;37534;39.772;2.718;2024-01-27T10:02:41;40.78;;;27.85;;
51459;SDS011;37534;39.772;2.718;2024-01-27T10:05:08;46.92;;;30.73;;
51459;SDS011;37534;39.772;2.718;2024-01-27T10:07:34;49.33;;;35.40;;
51459;SDS011;37534;39.772;2.718;2024-01-27T10:10:00;51.17;;;37.53;;
51459;SDS011;37534;39.772;2.718;2024-01-27T10:12:25;55.00;;;39.53;;
51459;SDS011;37534;39.772;2.718;2024-01-27T10:14:53;76.65;;;48.25;;
51459;SDS011;37534;39.772;2.718;2024-01-27T10:17:22;63.95;;;46.72;;
51459;SDS011;37534;39.772;2.718;2024-01-27T10:20:00;77.13;;;54.63;;
51459;SDS011;37534;39.772;2.718;2024-01-27T10:22:28;81.65;;;65.35;;
51459;SDS011;37534;39.772;2.718;2024-01-27T10:25:01;101.32;;;81.53;;
51459;SDS011;37534;39.772;2.718;2024-01-27T10:27:27;91.30;;;76.63;;
51459;SDS011;37534;39.772;2.718;2024-01-27T10:29:53;92.20;;;72.65;;
51459;SDS011;37534;39.772;2.718;2024-01-27T10:32:20;98.45;;;74.65;;
51459;SDS011;37534;39.772;2.718;2024-01-27T10:34:49;91.90;;;70.25;;
51459;SDS011;37534;39.772;2.718;2024-01-27T10:37:16;87.57;;;66.63;;
51459;SDS011;37534;39.772;2.718;2024-01-27T10:39:49;77.97;;;62.75;;
51459;SDS011;37534;39.772;2.718;2024-01-27T10:42:24;81.90;;;57.63;;
51459;SDS011;37534;39.772;2.718;2024-01-27T10:44:49;67.00;;;44.63;;
51459;SDS011;37534;39.772;2.718;2024-01-27T10:47:16;52.35;;;41.88;;
51459;SDS011;37534;39.772;2.718;2024-01-27T10:49:45;47.58;;;37.60;;
51459;SDS011;37534;39.772;2.718;2024-01-27T10:52:12;54.30;;;41.83;;
51459;SDS011;37534;39.772;2.718;2024-01-27T10:54:40;56.80;;;38.67;;
51459;SDS011;37534;39.772;2.718;2024-01-27T10:57:07;50.30;;;32.42;;
51459;SDS011;37534;39.772;2.718;2024-01-27T10:59:34;29.05;;;24.80;;
51459;SDS011;37534;39.772;2.718;2024-01-27T11:02:00;27.90;;;22.40;;
51459;SDS011;37534;39.772;2.718;2024-01-27T11:04:28;13.95;;;10.20;;
51459;SDS011;37534;39.772;2.718;2024-01-27T11:06:53;22.38;;;16.42;;
51459;SDS011;37534;39.772;2.718;2024-01-27T11:09:21;20.27;;;16.23;;
51459;SDS011;37534;39.772;2.718;2024-01-27T11:11:47;22.08;;;16.52;;
51459;SDS011;37534;39.772;2.718;2024-01-27T11:14:13;22.95;;;16.50;;
51459;SDS011;37534;39.772;2.718;2024-01-27T11:16:39;26.83;;;16.83;;
51459;SDS011;37534;39.772;2.718;2024-01-27T11:19:13;22.25;;;15.68;;
51459;SDS011;37534;39.772;2.718;2024-01-27T11:21:38;22.67;;;16.77;;
51459;SDS011;37534;39.772;2.718;2024-01-27T11:24:17;20.08;;;12.85;;
51459;SDS011;37534;39.772;2.718;2024-01-27T11:26:43;17.95;;;9.95;;
51459;SDS011;37534;39.772;2.718;2024-01-27T11:29:09;12.65;;;6.60;;
51459;SDS011;37534;39.772;2.718;2024-01-27T11:31:44;6.55;;;5.70;;
51459;SDS011;37534;39.772;2.718;2024-01-27T11:34:10;9.98;;;5.75;;
51459;SDS011;37534;39.772;2.718;2024-01-27T11:36:42;5.35;;;4.53;;
51459;SDS011;37534;39.772;2.718;2024-01-27T11:39:22;4.57;;;3.60;;
51459;SDS011;37534;39.772;2.718;2024-01-27T11:42:04;6.05;;;4.10;;
51459;SDS011;37534;39.772;2.718;2024-01-27T11:44:33;6.30;;;3.58;;
51459;SDS011;37534;39.772;2.718;2024-01-27T11:49:28;2.33;;;2.10;;
51459;SDS011;37534;39.772;2.718;2024-01-27T11:51:53;2.35;;;2.15;;
51459;SDS011;37534;39.772;2.718;2024-01-27T11:54:20;4.95;;;3.10;;
51459;SDS011;37534;39.772;2.718;2024-01-27T11:56:45;4.82;;;2.75;;
51459;SDS011;37534;39.772;2.718;2024-01-27T11:59:11;3.28;;;2.95;;
51459;SDS011;37534;39.772;2.718;2024-01-27T12:01:37;4.80;;;3.60;;
51459;SDS011;37534;39.772;2.718;2024-01-27T12:04:03;3.05;;;2.13;;
51459;SDS011;37534;39.772;2.718;2024-01-27T12:06:30;3.22;;;2.08;;
51459;SDS011;37534;39.772;2.718;2024-01-27T12:08:56;1.70;;;1.52;;
51459;SDS011;37534;39.772;2.718;2024-01-27T12:11:23;3.97;;;2.15;;
51459;SDS011;37534;39.772;2.718;2024-01-27T12:13:49;3.10;;;2.13;;
51459;SDS011;37534;39.772;2.718;2024-01-27T12:16:15;2.70;;;2.50;;
51459;SDS011;37534;39.772;2.718;2024-01-27T12:18:41;2.78;;;2.20;;
51459;SDS011;37534;39.772;2.718;2024-01-27T12:21:07;2.38;;;1.92;;
51459;SDS011;37534;39.772;2.718;2024-01-27T12:23:34;3.55;;;2.05;;
51459;SDS011;37534;39.772;2.718;2024-01-27T12:26:00;6.18;;;5.15;;
51459;SDS011;37534;39.772;2.718;2024-01-27T12:28:26;3.80;;;2.70;;
51459;SDS011;37534;39.772;2.718;2024-01-27T12:30:53;3.20;;;2.30;;
51459;SDS011;37534;39.772;2.718;2024-01-27T12:33:18;4.00;;;1.88;;
51459;SDS011;37534;39.772;2.718;2024-01-27T12:35:48;3.22;;;2.00;;
51459;SDS011;37534;39.772;2.718;2024-01-27T12:38:14;5.18;;;2.58;;
51459;SDS011;37534;39.772;2.718;2024-01-27T12:40:40;3.35;;;1.95;;
51459;SDS011;37534;39.772;2.718;2024-01-27T12:43:05;2.53;;;1.85;;
51459;SDS011;37534;39.772;2.718;2024-01-27T12:45:31;4.28;;;2.33;;
51459;SDS011;37534;39.772;2.718;2024-01-27T12:47:59;4.75;;;4.25;;
51459;SDS011;37534;39.772;2.718;2024-01-27T12:50:25;16.35;;;3.70;;
51459;SDS011;37534;39.772;2.718;2024-01-27T12:52:51;4.60;;;2.78;;
51459;SDS011;37534;39.772;2.718;2024-01-27T12:55:16;3.10;;;2.90;;
51459;SDS011;37534;39.772;2.718;2024-01-27T12:57:42;7.30;;;4.32;;
51459;SDS011;37534;39.772;2.718;2024-01-27T13:00:11;8.68;;;4.47;;
51459;SDS011;37534;39.772;2.718;2024-01-27T13:02:37;6.45;;;5.18;;
51459;SDS011;37534;39.772;2.718;2024-01-27T13:05:03;5.47;;;4.35;;
51459;SDS011;37534;39.772;2.718;2024-01-27T13:07:29;3.67;;;2.95;;
51459;SDS011;37534;39.772;2.718;2024-01-27T13:09:55;4.10;;;2.88;;
51459;SDS011;37534;39.772;2.718;2024-01-27T13:12:21;5.40;;;3.78;;
51459;SDS011;37534;39.772;2.718;2024-01-27T13:14:46;4.25;;;2.35;;
51459;SDS011;37534;39.772;2.718;2024-01-27T13:17:13;2.97;;;2.35;;
51459;SDS011;37534;39.772;2.718;2024-01-27T13:19:39;2.45;;;2.25;;
51459;SDS011;37534;39.772;2.718;2024-01-27T13:22:05;2.20;;;1.90;;
51459;SDS011;37534;39.772;2.718;2024-01-27T13:24:31;2.85;;;2.42;;
51459;SDS011;37534;39.772;2.718;2024-01-27T13:26:57;2.15;;;1.88;;
51459;SDS011;37534;39.772;2.718;2024-01-27T13:29:23;3.78;;;2.55;;
51459;SDS011;37534;39.772;2.718;2024-01-27T13:31:49;3.60;;;3.13;;
51459;SDS011;37534;39.772;2.718;2024-01-27T13:34:14;2.22;;;2.05;;
51459;SDS011;37534;39.772;2.718;2024-01-27T13:36:40;4.25;;;2.35;;
51459;SDS011;37534;39.772;2.718;2024-01-27T13:39:05;3.65;;;2.13;;
51459;SDS011;37534;39.772;2.718;2024-01-27T13:41:33;2.20;;;2.03;;
51459;SDS011;37534;39.772;2.718;2024-01-27T13:43:59;5.78;;;3.03;;
51459;SDS011;37534;39.772;2.718;2024-01-27T13:46:24;5.28;;;3.78;;
51459;SDS011;37534;39.772;2.718;2024-01-27T13:48:50;3.42;;;2.85;;
51459;SDS011;37534;39.772;2.718;2024-01-27T13:51:16;5.90;;;4.03;;
51459;SDS011;37534;39.772;2.718;2024-01-27T13:53:41;5.38;;;3.47;;
51459;SDS011;37534;39.772;2.718;2024-01-27T13:56:07;3.08;;;2.28;;
51459;SDS011;37534;39.772;2.718;2024-01-27T13:58:32;2.55;;;2.10;;
51459;SDS011;37534;39.772;2.718;2024-01-27T14:00:58;2.40;;;2.20;;
51459;SDS011;37534;39.772;2.718;2024-01-27T14:03:23;1.88;;;1.70;;
51459;SDS011;37534;39.772;2.718;2024-01-27T14:05:49;8.32;;;2.00;;
51459;SDS011;37534;39.772;2.718;2024-01-27T14:08:15;2.80;;;1.75;;
51459;SDS011;37534;39.772;2.718;2024-01-27T14:10:42;1.90;;;1.80;;
51459;SDS011;37534;39.772;2.718;2024-01-27T14:13:09;2.05;;;1.92;;
51459;SDS011;37534;39.772;2.718;2024-01-27T14:15:38;1.83;;;1.70;;
51459;SDS011;37534;39.772;2.718;2024-01-27T14:18:03;1.63;;;1.52;;
51459;SDS011;37534;39.772;2.718;2024-01-27T14:20:31;1.10;;;1.10;;
51459;SDS011;37534;39.772;2.718;2024-01-27T14:22:58;2.83;;;2.25;;
51459;SDS011;37534;39.772;2.718;2024-01-27T14:25:24;1.95;;;1.80;;
51459;SDS011;37534;39.772;2.718;2024-01-27T14:27:50;3.55;;;2.60;;
51459;SDS011;37534;39.772;2.718;2024-01-27T14:30:15;5.13;;;2.40;;